Time,TemperatureF,DewpointF,PressureIn,WindDirection,WindDirectionDegrees,WindSpeedMPH,WindSpeedGustMPH,Humidity,HourlyPrecipIn,Conditions,Clouds,dailyrainin,SoftwareType,DateUTC
2013-05-01 00:11:00,60.4,55.0,29.83,South,185,2.0,-999.0,81,-99.99,,,0.00,weatherlink.com 1.10,2013-05-01 07:11:00,
2013-05-01 00:26:00,60.4,55.0,29.84,SSE,166,1.0,-999.0,81,-99.99,,,0.00,weatherlink.com 1.10,2013-05-01 07:26:00,
2013-05-01 00:41:00,60.4,55.0,29.84,South,186,1.0,-999.0,81,-99.99,,,0.00,weatherlink.com 1.10,2013-05-01 07:41:00,
2013-05-01 00:56:00,60.5,55.0,29.84,South,187,1.0,-999.0,81,-99.99,,,0.00,weatherlink.com 1.10,2013-05-01 07:56:00,
2013-05-01 01:11:00,60.5,55.0,29.83,SSE,159,2.0,-999.0,81,-99.99,,,0.00,weatherlink.com 1.10,2013-05-01 08:11:00,
2013-05-01 01:26:00,60.5,55.0,29.83,South,175,0.0,-999.0,81,-99.99,,,0.00,weatherlink.com 1.10,2013-05-01 08:26:00,
2013-05-01 01:41:00,60.4,55.0,29.84,South,191,0.0,-999.0,81,-99.99,,,0.00,weatherlink.com 1.10,2013-05-01 08:41:00,
2013-05-01 01:56:00,60.4,55.0,29.84,South,170,1.0,-999.0,82,-99.99,,,0.00,weatherlink.com 1.10,2013-05-01 08:56:00,
2013-05-01 02:11:00,60.4,55.0,29.84,SSE,155,0.0,-999.0,82,-99.99,,,0.00,weatherlink.com 1.10,2013-05-01 09:11:00,
2013-05-01 02:26:00,60.4,55.0,29.85,SSE,152,0.0,-999.0,83,-99.99,,,0.00,weatherlink.com 1.10,2013-05-01 09:26:00,
2013-05-01 02:41:00,60.3,55.0,29.84,SSE,152,0.0,-999.0,83,-99.99,,,0.00,weatherlink.com 1.10,2013-05-01 09:41:00,
2013-05-01 02:56:00,60.3,55.0,29.84,SSW,200,0.0,-999.0,83,-99.99,,,0.00,weatherlink.com 1.10,2013-05-01 09:56:00,
2013-05-01 03:11:00,60.3,55.0,29.84,SSW,200,0.0,-999.0,83,-99.99,,,0.00,weatherlink.com 1.10,2013-05-01 10:11:00,
2013-05-01 03:26:00,60.3,56.0,29.84,SSW,200,0.0,-999.0,84,-99.99,,,0.00,weatherlink.com 1.10,2013-05-01 10:26:00,
2013-05-01 03:41:00,60.3,56.0,29.84,SSW,200,0.0,-999.0,84,-99.99,,,0.00,weatherlink.com 1.10,2013-05-01 10:41:00,
2013-05-01 03:56:00,60.2,55.0,29.84,SSW,200,0.0,-999.0,84,-99.99,,,0.00,weatherlink.com 1.10,2013-05-01 10:56:00,
2013-05-01 04:11:00,60.2,55.0,29.84,SSW,200,0.0,-999.0,84,-99.99,,,0.00,weatherlink.com 1.10,2013-05-01 11:11:00,
2013-05-01 04:26:00,60.2,55.0,29.84,SSW,200,0.0,-999.0,84,-99.99,,,0.00,weatherlink.com 1.10,2013-05-01 11:26:00,
2013-05-01 04:41:00,60.2,55.0,29.84,SSW,200,0.0,-999.0,84,-99.99,,,0.00,weatherlink.com 1.10,2013-05-01 11:41:00,
2013-05-01 04:56:00,60.4,56.0,29.84,SSW,200,0.0,-999.0,85,-99.99,,,0.00,weatherlink.com 1.10,2013-05-01 11:56:00,
2013-05-01 05:11:00,60.3,56.0,29.85,SSW,200,0.0,-999.0,85,-99.99,,,0.00,weatherlink.com 1.10,2013-05-01 12:11:00,
2013-05-01 05:26:00,60.3,56.0,29.85,SSW,200,0.0,-999.0,85,-99.99,,,0.00,weatherlink.com 1.10,2013-05-01 12:26:00,
2013-05-01 05:41:00,60.4,56.0,29.85,SSW,200,0.0,-999.0,85,-99.99,,,0.00,weatherlink.com 1.10,2013-05-01 12:41:00,
2013-05-01 05:56:00,60.4,56.0,29.86,SSW,200,0.0,-999.0,85,-99.99,,,0.00,weatherlink.com 1.10,2013-05-01 12:56:00,
2013-05-01 06:11:00,60.5,56.0,29.86,SSW,200,0.0,-999.0,86,-99.99,,,0.00,weatherlink.com 1.10,2013-05-01 13:11:00,
2013-05-01 06:26:00,60.5,56.0,29.87,SSW,200,0.0,-999.0,86,-99.99,,,0.00,weatherlink.com 1.10,2013-05-01 13:26:00,
2013-05-01 06:41:00,60.5,56.0,29.88,SSW,200,0.0,-999.0,86,-99.99,,,0.00,weatherlink.com 1.10,2013-05-01 13:41:00,
2013-05-01 06:56:00,60.6,56.0,29.88,SSW,200,0.0,-999.0,85,-99.99,,,0.00,weatherlink.com 1.10,2013-05-01 13:56:00,
2013-05-01 07:11:00,60.7,56.0,29.89,SSW,200,0.0,-999.0,85,-99.99,,,0.00,weatherlink.com 1.10,2013-05-01 14:11:00,
2013-05-01 07:27:00,60.9,56.0,29.90,SSW,200,0.0,-999.0,85,-99.99,,,0.00,weatherlink.com 1.10,2013-05-01 14:27:00,
2013-05-01 07:42:00,61.1,56.0,29.91,SSW,200,0.0,-999.0,84,-99.99,,,0.00,weatherlink.com 1.10,2013-05-01 14:42:00,
2013-05-01 07:57:00,61.5,57.0,29.91,SSW,200,0.0,-999.0,84,-99.99,,,0.00,weatherlink.com 1.10,2013-05-01 14:57:00,
2013-05-01 08:12:00,62.1,57.0,29.91,West,264,0.0,-999.0,83,-99.99,,,0.00,weatherlink.com 1.10,2013-05-01 15:12:00,
2013-05-01 08:27:00,62.7,57.0,29.91,WSW,257,0.0,-999.0,81,-99.99,,,0.00,weatherlink.com 1.10,2013-05-01 15:27:00,
2013-05-01 08:42:00,63.6,57.0,29.91,SW,229,0.0,-999.0,80,-99.99,,,0.00,weatherlink.com 1.10,2013-05-01 15:42:00,
2013-05-01 08:57:00,63.9,57.0,29.92,South,184,1.0,-999.0,79,-99.99,,,0.00,weatherlink.com 1.10,2013-05-01 15:57:00,
2013-05-01 09:12:00,64.7,57.0,29.92,SW,221,4.0,-999.0,76,-99.99,,,0.00,weatherlink.com 1.10,2013-05-01 16:12:00,
2013-05-01 09:27:00,64.9,57.0,29.93,SW,221,3.0,-999.0,75,-99.99,,,0.00,weatherlink.com 1.10,2013-05-01 16:27:00,
2013-05-01 09:42:00,65.5,57.0,29.93,SW,226,0.0,-999.0,74,-99.99,,,0.00,weatherlink.com 1.10,2013-05-01 16:42:00,
2013-05-01 09:57:00,65.7,57.0,29.93,SW,225,1.0,-999.0,73,-99.99,,,0.00,weatherlink.com 1.10,2013-05-01 16:57:00,
2013-05-01 10:12:00,66.3,57.0,29.93,WSW,241,5.0,-999.0,71,-99.99,,,0.00,weatherlink.com 1.10,2013-05-01 17:12:00,
2013-05-01 10:27:00,67.9,57.0,29.93,SSW,205,0.0,-999.0,68,-99.99,,,0.00,weatherlink.com 1.10,2013-05-01 17:27:00,
2013-05-01 10:42:00,69.5,57.0,29.93,SSW,205,7.0,-999.0,65,-99.99,,,0.00,weatherlink.com 1.10,2013-05-01 17:42:00,
2013-05-01 10:57:00,69.1,56.0,29.94,WSW,257,0.0,-999.0,63,-99.99,,,0.00,weatherlink.com 1.10,2013-05-01 17:57:00,
2013-05-01 11:12:00,68.8,56.0,29.94,SSE,153,3.0,-999.0,65,-99.99,,,0.00,weatherlink.com 1.10,2013-05-01 18:12:00,
2013-05-01 11:27:00,70.8,57.0,29.94,WSW,247,1.0,-999.0,61,-99.99,,,0.00,weatherlink.com 1.10,2013-05-01 18:27:00,
2013-05-01 11:42:00,71.0,56.0,29.93,SSW,204,4.0,-999.0,60,-99.99,,,0.00,weatherlink.com 1.10,2013-05-01 18:42:00,
2013-05-01 11:57:00,70.5,56.0,29.93,SSW,209,3.0,-999.0,61,-99.99,,,0.00,weatherlink.com 1.10,2013-05-01 18:57:00,
2013-05-01 12:12:00,70.6,56.0,29.93,SW,216,1.0,-999.0,60,-99.99,,,0.00,weatherlink.com 1.10,2013-05-01 19:12:00,
2013-05-01 12:27:00,72.8,57.0,29.93,WSW,246,2.0,-999.0,58,-99.99,,,0.00,weatherlink.com 1.10,2013-05-01 19:27:00,
2013-05-01 12:42:00,71.9,57.0,29.93,SW,215,3.0,-999.0,59,-99.99,,,0.00,weatherlink.com 1.10,2013-05-01 19:42:00,
2013-05-01 12:57:00,72.7,57.0,29.93,West,276,3.0,-999.0,58,-99.99,,,0.00,weatherlink.com 1.10,2013-05-01 19:57:00,
2013-05-01 13:12:00,73.3,57.0,29.92,West,265,4.0,-999.0,57,-99.99,,,0.00,weatherlink.com 1.10,2013-05-01 20:12:00,
2013-05-01 13:27:00,74.0,57.0,29.92,WNW,286,4.0,-999.0,56,-99.99,,,0.00,weatherlink.com 1.10,2013-05-01 20:27:00,
2013-05-01 13:42:00,73.5,57.0,29.91,West,275,4.0,-999.0,56,-99.99,,,0.00,weatherlink.com 1.10,2013-05-01 20:42:00,
2013-05-01 13:57:00,73.9,58.0,29.91,WNW,292,2.0,-999.0,58,-99.99,,,0.00,weatherlink.com 1.10,2013-05-01 20:57:00,
2013-05-01 14:12:00,73.8,57.0,29.91,SSW,213,8.0,-999.0,56,-99.99,,,0.00,weatherlink.com 1.10,2013-05-01 21:12:00,
2013-05-01 14:27:00,75.1,58.0,29.91,WSW,240,4.0,-999.0,56,-99.99,,,0.00,weatherlink.com 1.10,2013-05-01 21:27:00,
2013-05-01 14:42:00,74.3,57.0,29.91,WSW,258,2.0,-999.0,55,-99.99,,,0.00,weatherlink.com 1.10,2013-05-01 21:42:00,
2013-05-01 14:57:00,73.9,58.0,29.90,SW,217,3.0,-999.0,57,-99.99,,,0.00,weatherlink.com 1.10,2013-05-01 21:57:00,
2013-05-01 15:12:00,74.8,57.0,29.90,WNW,287,1.0,-999.0,55,-99.99,,,0.00,weatherlink.com 1.10,2013-05-01 22:12:00,
2013-05-01 15:27:00,73.7,56.0,29.90,SSW,204,3.0,-999.0,55,-99.99,,,0.00,weatherlink.com 1.10,2013-05-01 22:27:00,
2013-05-01 15:42:00,73.5,56.0,29.89,SW,229,10.0,-999.0,55,-99.99,,,0.00,weatherlink.com 1.10,2013-05-01 22:42:00,
2013-05-01 15:57:00,73.3,57.0,29.89,SSW,206,3.0,-999.0,57,-99.99,,,0.00,weatherlink.com 1.10,2013-05-01 22:57:00,
2013-05-01 16:12:00,73.1,57.0,29.89,SW,221,7.0,-999.0,58,-99.99,,,0.00,weatherlink.com 1.10,2013-05-01 23:12:00,
2013-05-01 16:27:00,74.8,59.0,29.89,WNW,284,0.0,-999.0,58,-99.99,,,0.00,weatherlink.com 1.10,2013-05-01 23:27:00,
2013-05-01 16:42:00,76.0,60.0,29.89,NNW,329,2.0,-999.0,57,-99.99,,,0.00,weatherlink.com 1.10,2013-05-01 23:42:00,
2013-05-01 16:58:00,75.7,59.0,29.89,NNW,338,1.0,-999.0,57,-99.99,,,0.00,weatherlink.com 1.10,2013-05-01 23:58:00,
2013-05-01 17:13:00,75.1,59.0,29.89,NNW,337,3.0,-999.0,58,-99.99,,,0.00,weatherlink.com 1.10,2013-05-02 00:13:00,
2013-05-01 17:28:00,74.4,59.0,29.89,WNW,303,2.0,-999.0,59,-99.99,,,0.00,weatherlink.com 1.10,2013-05-02 00:28:00,
2013-05-01 17:43:00,72.2,58.0,29.90,NNW,332,2.0,-999.0,61,-99.99,,,0.00,weatherlink.com 1.10,2013-05-02 00:43:00,
2013-05-01 17:58:00,71.4,58.0,29.90,WNW,283,3.0,-999.0,63,-99.99,,,0.00,weatherlink.com 1.10,2013-05-02 00:58:00,
2013-05-01 18:13:00,70.7,58.0,29.90,North,5,1.0,-999.0,65,-99.99,,,0.00,weatherlink.com 1.10,2013-05-02 01:13:00,
2013-05-01 18:28:00,69.9,58.0,29.90,ENE,65,0.0,-999.0,66,-99.99,,,0.00,weatherlink.com 1.10,2013-05-02 01:28:00,
2013-05-01 18:43:00,69.1,58.0,29.90,WNW,287,1.0,-999.0,68,-99.99,,,0.00,weatherlink.com 1.10,2013-05-02 01:43:00,
2013-05-01 18:58:00,68.3,58.0,29.91,NNW,348,0.0,-999.0,69,-99.99,,,0.00,weatherlink.com 1.10,2013-05-02 01:58:00,
2013-05-01 19:13:00,67.7,58.0,29.91,WNW,286,0.0,-999.0,71,-99.99,,,0.00,weatherlink.com 1.10,2013-05-02 02:13:00,
2013-05-01 19:28:00,66.7,58.0,29.92,NNW,335,0.0,-999.0,74,-99.99,,,0.00,weatherlink.com 1.10,2013-05-02 02:28:00,
2013-05-01 19:43:00,65.8,58.0,29.93,NNW,332,0.0,-999.0,75,-99.99,,,0.00,weatherlink.com 1.10,2013-05-02 02:43:00,
2013-05-01 19:58:00,65.1,58.0,29.94,NNW,343,0.0,-999.0,77,-99.99,,,0.00,weatherlink.com 1.10,2013-05-02 02:58:00,
2013-05-01 20:13:00,64.7,58.0,29.94,WNW,292,0.0,-999.0,79,-99.99,,,0.00,weatherlink.com 1.10,2013-05-02 03:13:00,
2013-05-01 20:28:00,64.3,58.0,29.95,NNW,333,0.0,-999.0,79,-99.99,,,0.00,weatherlink.com 1.10,2013-05-02 03:28:00,
2013-05-01 20:43:00,63.8,57.0,29.96,NNW,333,0.0,-999.0,79,-99.99,,,0.00,weatherlink.com 1.10,2013-05-02 03:43:00,
2013-05-01 20:58:00,63.5,57.0,29.97,NNW,333,0.0,-999.0,79,-99.99,,,0.00,weatherlink.com 1.10,2013-05-02 03:58:00,
2013-05-01 21:13:00,63.1,57.0,29.97,NNW,333,0.0,-999.0,80,-99.99,,,0.00,weatherlink.com 1.10,2013-05-02 04:13:00,
2013-05-01 21:28:00,62.9,57.0,29.99,NNW,333,0.0,-999.0,80,-99.99,,,0.00,weatherlink.com 1.10,2013-05-02 04:28:00,
2013-05-01 21:43:00,62.5,56.0,29.99,NNW,333,0.0,-999.0,80,-99.99,,,0.00,weatherlink.com 1.10,2013-05-02 04:43:00,
2013-05-01 21:58:00,62.1,56.0,30.00,NNW,333,0.0,-999.0,81,-99.99,,,0.00,weatherlink.com 1.10,2013-05-02 04:58:00,
2013-05-01 22:13:00,62.0,56.0,30.01,NNW,333,0.0,-999.0,81,-99.99,,,0.00,weatherlink.com 1.10,2013-05-02 05:13:00,
2013-05-01 22:28:00,61.8,56.0,30.02,NNW,333,0.0,-999.0,82,-99.99,,,0.00,weatherlink.com 1.10,2013-05-02 05:28:00,
2013-05-01 22:43:00,61.4,56.0,30.02,NNW,333,0.0,-999.0,82,-99.99,,,0.00,weatherlink.com 1.10,2013-05-02 05:43:00,
2013-05-01 22:58:00,61.1,56.0,30.02,NNW,333,0.0,-999.0,84,-99.99,,,0.00,weatherlink.com 1.10,2013-05-02 05:58:00,
2013-05-01 23:13:00,60.7,56.0,30.02,NNW,333,1.0,-999.0,85,-99.99,,,0.00,weatherlink.com 1.10,2013-05-02 06:13:00,
2013-05-01 23:28:00,60.6,56.0,30.03,NNW,333,0.0,-999.0,85,-99.99,,,0.00,weatherlink.com 1.10,2013-05-02 06:28:00,
2013-05-01 23:43:00,60.5,56.0,30.02,NNW,335,0.0,-999.0,86,-99.99,,,0.00,weatherlink.com 1.10,2013-05-02 06:43:00,
2013-05-01 23:58:00,60.1,56.0,30.03,NNW,335,0.0,-999.0,86,-99.99,,,0.00,weatherlink.com 1.10,2013-05-02 06:58:00,